Time;durP1;ratioP1;P1;durP2;ratioP2;P2;SDS_P1;SDS_P2;PMS_P1;PMS_P2;Temp;Humidity;BMP_temperature;BMP_pressure;BME280_temperature;BME280_humidity;BME280_pressure;Samples;Min_cycle;Max_cycle;Signal;HPM_P1;HPM_P2
2023/10/14 00:01:11;;;;;;;3.43;2.60;;;;;;;22.04;52.50;99931.59;4977927;28;20046;-85
2023/10/14 00:03:41;;;;;;;3.33;2.58;;;;;;;22.06;52.40;99939.34;4986813;28;20995;-85
2023/10/14 00:06:07;;;;;;;2.72;2.17;;;;;;;22.03;52.71;99944.03;4966633;28;20046;-85
2023/10/14 00:08:34;;;;;;;3.63;2.53;;;;;;;22.03;52.49;99957.28;4967306;28;21704;-85
2023/10/14 00:11:06;;;;;;;3.13;2.58;;;;;;;21.93;52.53;99956.16;4983981;28;20042;-85
2023/10/14 00:13:37;;;;;;;4.57;2.70;;;;;;;22.02;52.33;99962.81;4982757;28;20057;-84
2023/10/14 00:16:07;;;;;;;4.60;2.53;;;;;;;22.05;52.23;99978.31;4983891;28;20132;-85
2023/10/14 00:18:33;;;;;;;3.30;2.60;;;;;;;22.01;52.38;99985.03;4982655;28;20101;-86
2023/10/14 00:20:58;;;;;;;4.47;2.83;;;;;;;22.05;52.65;99982.81;4979830;28;20054;-85
2023/10/14 00:23:26;;;;;;;3.63;2.50;;;;;;;22.05;52.43;100002.16;4983859;28;20046;-86
2023/10/14 00:25:54;;;;;;;4.50;2.40;;;;;;;22.02;52.60;100003.38;4981789;28;20129;-86
2023/10/14 00:28:20;;;;;;;3.10;2.28;;;;;;;22.03;52.66;100012.16;4982717;28;20180;-86
2023/10/14 00:30:46;;;;;;;4.80;2.65;;;;;;;21.97;52.46;100003.22;4983804;28;20053;-86
2023/10/14 00:33:12;;;;;;;2.58;2.17;;;;;;;21.95;52.56;100001.81;4960852;28;20051;-85
2023/10/14 00:35:40;;;;;;;5.50;2.58;;;;;;;21.99;52.44;100021.56;4981741;28;20047;-85
2023/10/14 00:38:10;;;;;;;3.33;2.35;;;;;;;22.01;52.69;100030.94;4985103;28;20082;-86
2023/10/14 00:40:40;;;;;;;3.63;2.35;;;;;;;22.01;52.56;100019.50;4982438;28;20046;-85
2023/10/14 00:43:06;;;;;;;3.88;2.60;;;;;;;22.02;52.14;100035.19;4981844;28;20093;-85
2023/10/14 00:45:32;;;;;;;3.17;2.45;;;;;;;21.89;52.33;100014.06;4964385;28;20050;-85
2023/10/14 00:48:00;;;;;;;2.95;2.42;;;;;;;21.96;52.41;100028.09;4955111;28;20054;-85
2023/10/14 00:53:05;;;;;;;3.53;2.20;;;;;;;21.91;52.44;100040.38;4983690;28;20054;-84
2023/10/14 00:58:20;;;;;;;3.28;2.22;;;;;;;21.96;52.56;100053.81;4981719;28;20046;-86
2023/10/14 01:00:56;;;;;;;3.40;2.28;;;;;;;21.96;52.39;100057.28;4955155;28;20046;-86
2023/10/14 01:03:34;;;;;;;3.85;2.50;;;;;;;21.92;52.51;100055.25;4987614;28;20054;-85
2023/10/14 01:06:14;;;;;;;3.13;2.63;;;;;;;21.98;52.46;100070.31;4981978;28;20050;-85
2023/10/14 01:08:43;;;;;;;3.28;2.30;;;;;;;21.99;52.18;100077.22;4982412;28;20054;-85
2023/10/14 01:11:09;;;;;;;3.22;2.22;;;;;;;21.97;52.53;100085.41;4960316;28;20050;-85
2023/10/14 01:13:36;;;;;;;3.03;2.05;;;;;;;21.88;52.24;100073.41;4965639;28;20088;-85
2023/10/14 01:16:08;;;;;;;3.00;2.10;;;;;;;21.98;52.35;100089.69;4983069;28;20101;-85
2023/10/14 01:18:38;;;;;;;3.42;2.08;;;;;;;21.96;52.50;100093.56;4974274;28;20531;-85
2023/10/14 01:21:07;;;;;;;3.28;2.20;;;;;;;21.95;52.35;100100.72;4982088;28;20404;-85
2023/10/14 01:23:38;;;;;;;2.88;2.10;;;;;;;21.90;52.49;100099.69;4982351;28;20128;-85
2023/10/14 01:26:05;;;;;;;2.63;2.13;;;;;;;21.94;52.41;100107.03;4965448;28;20125;-85
2023/10/14 01:28:31;;;;;;;2.83;1.90;;;;;;;21.83;52.44;100091.78;4984057;28;20397;-85
2023/10/14 01:31:12;;;;;;;3.50;2.55;;;;;;;21.94;52.64;100109.69;4959966;28;20042;-85
2023/10/14 01:33:38;;;;;;;2.53;1.92;;;;;;;21.95;52.30;100116.63;4979611;28;20104;-85
2023/10/14 01:36:04;;;;;;;2.78;1.95;;;;;;;21.90;52.22;100116.44;4980442;28;20047;-84
2023/10/14 01:38:31;;;;;;;4.88;2.20;;;;;;;21.86;52.59;100109.09;4982275;28;20065;-86
2023/10/14 01:40:57;;;;;;;3.97;2.28;;;;;;;21.95;52.56;100123.75;4956270;28;20414;-85
2023/10/14 01:43:29;;;;;;;2.88;2.20;;;;;;;21.95;52.43;100123.75;4984047;28;20120;-85
2023/10/14 01:48:25;;;;;;;2.72;2.22;;;;;;;21.92;52.47;100134.78;4965964;28;20150;-85
2023/10/14 01:50:55;;;;;;;2.17;1.90;;;;;;;21.92;52.53;100137.44;4964203;28;20046;-85
2023/10/14 01:53:27;;;;;;;3.00;1.98;;;;;;;21.91;52.34;100138.47;4959369;28;20046;-85
2023/10/14 01:55:58;;;;;;;2.97;1.95;;;;;;;21.93;52.37;100149.66;4979865;28;20046;-86
2023/10/14 01:58:30;;;;;;;2.67;1.90;;;;;;;21.92;52.43;100154.16;4964320;28;20081;-86
2023/10/14 02:01:14;;;;;;;2.80;2.20;;;;;;;21.93;52.25;100152.31;4968794;28;20507;-85
2023/10/14 02:03:46;;;;;;;2.42;2.08;;;;;;;21.90;52.07;100156.19;4972846;28;20053;-85
2023/10/14 02:06:26;;;;;;;2.78;1.95;;;;;;;21.92;52.14;100156.00;4985196;28;20046;-85
2023/10/14 02:08:54;;;;;;;2.67;2.20;;;;;;;21.86;52.38;100157.63;4983857;28;20069;-86
2023/10/14 02:11:21;;;;;;;2.63;1.63;;;;;;;21.85;52.19;100157.81;4977374;28;20050;-87
2023/10/14 02:13:51;;;;;;;2.80;2.00;;;;;;;21.85;52.30;100163.94;4999723;28;20044;-86
2023/10/14 02:16:24;;;;;;;4.22;2.08;;;;;;;21.91;52.24;100180.88;5012536;28;20107;-86
2023/10/14 02:18:50;;;;;;;2.50;1.90;;;;;;;21.87;52.25;100187.59;4984548;28;20038;-86
2023/10/14 02:21:16;;;;;;;1.70;1.40;;;;;;;21.91;52.22;100189.63;5003740;28;20369;-86
2023/10/14 02:23:45;;;;;;;4.43;2.10;;;;;;;21.90;52.19;100193.31;4998298;28;20131;-86
2023/10/14 02:26:33;;;;;;;2.30;1.70;;;;;;;21.90;52.41;100197.75;4982620;28;20057;-86
2023/10/14 02:28:59;;;;;;;2.72;1.77;;;;;;;21.87;52.33;100195.53;4978430;28;20524;-86
2023/10/14 02:31:29;;;;;;;2.33;1.83;;;;;;;21.87;52.38;100204.31;4997750;28;20520;-86
2023/10/14 02:33:56;;;;;;;;;;;;;;;21.88;52.04;100203.28;5003000;28;20053;-86
2023/10/14 02:36:27;;;;;;;2.80;2.00;;;;;;;21.83;52.22;100204.94;4994638;28;20057;-86
2023/10/14 02:38:53;;;;;;;3.25;2.08;;;;;;;21.78;51.98;100202.09;4983532;28;20187;-85
2023/10/14 02:41:27;;;;;;;3.90;2.40;;;;;;;21.90;52.04;100227.78;4999558;28;20623;-85
2023/10/14 02:44:01;;;;;;;2.83;1.98;;;;;;;21.87;51.97;100235.28;4998249;28;20045;-85
2023/10/14 02:46:30;;;;;;;2.33;1.73;;;;;;;21.86;52.40;100236.31;5000051;28;20041;-86
2023/10/14 02:49:02;;;;;;;3.10;1.83;;;;;;;21.88;52.12;100244.88;4977193;28;20058;-86
2023/10/14 02:51:35;;;;;;;2.05;1.85;;;;;;;21.87;52.29;100238.75;4998881;28;20053;-86
2023/10/14 02:54:13;;;;;;;2.60;1.98;;;;;;;21.80;52.24;100231.84;4969364;28;20137;-86
2023/10/14 02:59:20;;;;;;;2.75;1.88;;;;;;;21.86;51.97;100261.00;4977468;28;20061;-86
2023/10/14 03:04:40;;;;;;;3.60;1.88;;;;;;;21.76;52.08;100257.97;4998552;28;20627;-86
2023/10/14 03:07:09;;;;;;;2.75;1.80;;;;;;;21.85;51.97;100283.22;5015958;28;20165;-86
2023/10/14 03:09:35;;;;;;;3.85;2.00;;;;;;;21.81;52.21;100289.97;5008247;28;20448;-87
2023/10/14 03:12:01;;;;;;;3.90;2.13;;;;;;;21.70;52.18;100272.81;5000368;28;20077;-86
2023/10/14 03:14:28;;;;;;;2.42;1.70;;;;;;;21.82;52.31;100291.59;5001123;28;20042;-86
2023/10/14 03:16:55;;;;;;;2.08;1.58;;;;;;;21.81;52.01;100305.03;4999173;28;20038;-86
2023/10/14 03:19:20;;;;;;;1.90;1.60;;;;;;;21.82;52.27;100307.47;4984158;28;20044;-85
2023/10/14 03:21:58;;;;;;;2.97;1.60;;;;;;;21.84;52.20;100302.78;4996091;28;20049;-86
2023/10/14 03:24:30;;;;;;;2.72;1.70;;;;;;;21.82;51.98;100317.28;4980305;28;20054;-86
2023/10/14 03:27:03;;;;;;;2.22;1.75;;;;;;;21.75;52.09;100319.13;4975286;28;20088;-86
2023/10/14 03:29:29;;;;;;;2.55;1.67;;;;;;;21.82;52.28;100331.34;4998444;28;20046;-86
2023/10/14 03:31:55;;;;;;;2.05;1.70;;;;;;;21.82;52.13;100335.81;5001285;28;20673;-86
2023/10/14 03:34:29;;;;;;;2.38;1.65;;;;;;;21.82;51.93;100346.44;4998884;28;20046;-86
2023/10/14 03:37:00;;;;;;;2.88;1.77;;;;;;;21.74;52.09;100341.34;5001180;28;20089;-85
2023/10/14 03:39:40;;;;;;;1.63;1.52;;;;;;;21.75;52.20;100345.63;4993748;28;20388;-85
2023/10/14 03:42:10;;;;;;;2.67;1.67;;;;;;;21.78;52.33;100353.16;5016512;28;20144;-85
2023/10/14 03:44:36;;;;;;;2.63;1.70;;;;;;;21.74;52.21;100349.28;5001739;28;20141;-85
2023/10/14 03:47:03;;;;;;;2.83;1.58;;;;;;;21.79;51.93;100370.69;4982950;28;20046;-85
2023/10/14 03:49:32;;;;;;;2.65;1.80;;;;;;;21.79;52.11;100376.00;5001733;28;20076;-85
2023/10/14 03:51:58;;;;;;;2.53;1.95;;;;;;;21.68;51.96;100367.63;4999588;28;20053;-85
2023/10/14 03:54:24;;;;;;;3.35;1.70;;;;;;;21.78;51.88;100391.09;5001350;28;20049;-85
2023/10/14 03:56:50;;;;;;;3.20;1.90;;;;;;;21.73;52.21;100385.59;5001708;28;20041;-86
2023/10/14 03:59:25;;;;;;;2.83;1.65;;;;;;;21.78;52.09;100398.22;4997146;28;20046;-86
2023/10/14 04:01:58;;;;;;;2.92;1.75;;;;;;;21.77;52.10;100402.69;4997250;28;20061;-85
2023/10/14 04:04:24;;;;;;;1.83;1.58;;;;;;;21.77;52.31;100412.50;4998469;28;20057;-85
2023/10/14 04:12:22;;;;;;;2.10;1.60;;;;;;;21.76;51.90;100427.56;4985585;28;20057;-85
2023/10/14 04:14:54;;;;;;;1.90;1.42;;;;;;;21.77;51.93;100431.03;4997910;28;20749;-85
2023/10/14 04:17:21;;;;;;;1.55;1.40;;;;;;;21.63;52.21;100420.41;4981167;28;20104;-85
2023/10/14 04:22:31;;;;;;;2.40;1.70;;;;;;;21.75;52.19;100441.84;4996646;28;20969;-86
2023/10/14 04:35:24;;;;;;;2.88;1.42;;;;;;;21.74;52.20;100458.78;4980237;28;20152;-86
2023/10/14 04:37:54;;;;;;;3.67;1.50;;;;;;;21.69;52.23;100461.19;5004549;28;20057;-86
2023/10/14 04:43:19;;;;;;;2.80;1.45;;;;;;;21.72;52.12;100474.03;4985141;28;19929;-86
2023/10/14 04:45:54;;;;;;;2.88;1.73;;;;;;;21.66;52.21;100464.22;5002051;28;20050;-86
2023/10/14 04:48:28;;;;;;;2.65;1.58;;;;;;;21.72;52.09;100481.97;5003024;28;20054;-86
2023/10/14 04:50:57;;;;;;;2.55;1.30;;;;;;;21.68;51.95;100486.06;5002501;28;20061;-86
2023/10/14 04:53:26;;;;;;;2.33;1.50;;;;;;;21.65;52.09;100484.63;5001305;28;20057;-86
2023/10/14 04:55:54;;;;;;;1.88;1.10;;;;;;;21.67;52.09;100495.84;5002056;28;20660;-86
2023/10/14 04:58:26;;;;;;;2.78;1.40;;;;;;;21.69;51.96;100496.44;5003470;28;20053;-86
2023/10/14 05:00:52;;;;;;;2.53;1.63;;;;;;;21.68;51.71;100500.13;5003100;28;20041;-85
2023/10/14 05:03:20;;;;;;;1.38;1.27;;;;;;;21.70;51.93;100494.63;4985165;28;20085;-85
2023/10/14 05:06:03;;;;;;;1.88;1.23;;;;;;;21.68;52.05;100502.75;4987302;28;20049;-85
2023/10/14 05:08:45;;;;;;;1.45;1.33;;;;;;;21.58;51.97;100490.94;5001998;28;20165;-85
2023/10/14 05:11:22;;;;;;;2.17;1.15;;;;;;;21.67;52.01;100514.38;4988112;28;20045;-85
2023/10/14 05:17:32;;;;;;;3.28;1.17;;;;;;;21.68;51.79;100523.16;4986435;28;20427;-85
2023/10/14 05:19:41;;;;;;;2.35;1.52;;;;;;;21.67;51.94;100529.47;4993119;28;20066;-86
2023/10/14 05:22:13;;;;;;;2.83;1.80;;;;;;;21.62;51.70;100519.47;5002308;28;20052;-85
2023/10/14 05:24:45;;;;;;;1.70;1.10;;;;;;;21.67;52.02;100534.78;5004241;28;20045;-85
2023/10/14 05:27:11;;;;;;;1.30;1.02;;;;;;;21.66;51.74;100541.09;4975686;28;20061;-85
2023/10/14 05:29:37;;;;;;;3.03;1.65;;;;;;;21.65;52.09;100548.22;5002125;28;20049;-86
2023/10/14 05:32:15;;;;;;;3.22;1.38;;;;;;;21.56;51.83;100532.72;4984495;28;20060;-85
2023/10/14 05:34:45;;;;;;;3.80;1.73;;;;;;;21.63;51.97;100565.34;5015553;28;20128;-85
2023/10/14 05:37:11;;;;;;;3.10;1.58;;;;;;;21.64;51.87;100564.31;5000041;28;20143;-86
2023/10/14 05:39:41;;;;;;;1.60;1.50;;;;;;;21.64;52.04;100577.56;5002717;28;20049;-85
2023/10/14 05:42:16;;;;;;;1.48;1.30;;;;;;;21.63;52.08;100581.22;5002952;28;20065;-85
2023/10/14 05:44:47;;;;;;;2.53;1.20;;;;;;;21.62;51.92;100580.41;4997582;28;20077;-85
2023/10/14 05:47:14;;;;;;;2.38;1.40;;;;;;;21.64;52.18;100598.75;4991354;28;20440;-85
2023/10/14 05:49:40;;;;;;;2.75;1.75;;;;;;;21.60;52.01;100594.88;5001128;28;20046;-85
2023/10/14 05:52:05;;;;;;;4.40;1.70;;;;;;;21.52;52.04;100593.19;5002256;28;20061;-85
2023/10/14 05:54:31;;;;;;;3.55;1.20;;;;;;;21.61;51.78;100615.06;4988067;28;20037;-85
2023/10/14 05:56:56;;;;;;;1.50;1.20;;;;;;;21.54;52.08;100609.72;4986045;28;20554;-85
2023/10/14 05:59:22;;;;;;;1.52;1.23;;;;;;;21.61;52.08;100615.06;4967621;28;20053;-85
2023/10/14 06:01:48;;;;;;;3.53;1.33;;;;;;;21.61;51.75;100621.19;4999139;28;20053;-83
2023/10/14 06:04:15;;;;;;;2.53;1.40;;;;;;;21.48;51.92;100607.84;4997654;28;20914;-87
2023/10/14 06:06:43;;;;;;;2.05;1.00;;;;;;;21.59;51.81;100628.50;5003333;28;20049;-86
2023/10/14 06:09:10;;;;;;;3.05;1.58;;;;;;;21.62;51.77;100645.84;5000209;28;20426;-86
2023/10/14 06:11:36;;;;;;;2.10;1.20;;;;;;;21.47;51.74;100624.75;5001699;28;20058;-86
2023/10/14 06:14:03;;;;;;;2.17;1.27;;;;;;;21.56;51.97;100644.81;5002502;28;20156;-86
2023/10/14 06:16:32;;;;;;;1.65;1.15;;;;;;;21.52;51.82;100640.88;5002571;28;20169;-86
2023/10/14 06:18:59;;;;;;;2.10;1.00;;;;;;;21.59;51.62;100665.59;4996613;28;20050;-86
2023/10/14 06:21:28;;;;;;;2.15;1.33;;;;;;;21.57;52.03;100675.59;5003392;28;20711;-86
2023/10/14 06:23:54;;;;;;;3.22;1.38;;;;;;;21.57;51.76;100680.88;4985238;28;20066;-86
2023/10/14 06:26:19;;;;;;;1.65;1.25;;;;;;;21.58;51.57;100679.88;5000770;28;20257;-86
2023/10/14 06:28:46;;;;;;;2.15;1.20;;;;;;;21.46;51.61;100665.53;5003809;28;20136;-86
2023/10/14 06:31:12;;;;;;;1.17;1.10;;;;;;;21.45;51.89;100669.19;4996664;28;20042;-86
2023/10/14 06:33:40;;;;;;;1.40;1.05;;;;;;;21.58;51.90;100697.59;5001788;28;20045;-85
2023/10/14 06:36:10;;;;;;;1.38;1.27;;;;;;;21.55;51.97;100693.50;4976146;28;20082;-86
2023/10/14 06:38:37;;;;;;;;;;;;;;;21.58;51.88;100709.00;4999894;28;20046;-86
2023/10/14 06:41:02;;;;;;;1.70;1.10;;;;;;;21.57;51.84;100717.97;4999032;28;19956;-85
2023/10/14 06:43:28;;;;;;;1.42;0.95;;;;;;;21.58;51.71;100719.63;4997292;28;20080;-85
2023/10/14 06:45:54;;;;;;;1.17;0.90;;;;;;;21.60;51.62;100728.19;5000345;28;20149;-86
2023/10/14 06:48:20;;;;;;;2.10;1.23;;;;;;;21.62;51.90;100725.34;4978896;28;20053;-85
2023/10/14 06:50:48;;;;;;;1.42;1.30;;;;;;;21.58;51.78;100727.56;4997215;28;20050;-86
2023/10/14 06:53:17;;;;;;;1.38;1.00;;;;;;;21.59;51.92;100731.03;4997493;28;20045;-84
2023/10/14 06:55:43;;;;;;;2.05;1.48;;;;;;;21.49;51.99;100720.75;4996071;28;20088;-86
2023/10/14 06:58:18;;;;;;;2.58;1.63;;;;;;;21.59;51.63;100737.16;4982820;28;20389;-85
2023/10/14 07:00:43;;;;;;;1.52;1.15;;;;;;;21.55;51.77;100735.91;4979815;28;20125;-86
2023/10/14 07:03:12;;;;;;;2.25;0.95;;;;;;;21.53;51.55;100740.56;4979405;28;20054;-86
2023/10/14 07:05:50;;;;;;;2.47;1.25;;;;;;;21.67;51.49;100755.53;4974615;28;20066;-87
2023/10/14 07:08:19;;;;;;;2.65;1.38;;;;;;;21.77;51.35;100768.47;4997756;28;20069;-84
2023/10/14 07:10:47;;;;;;;1.75;1.02;;;;;;;21.81;51.34;100759.09;4996326;28;20049;-84
2023/10/14 07:13:13;;;;;;;1.88;1.17;;;;;;;21.81;51.11;100758.28;4999274;28;20050;-84
2023/10/14 07:15:41;;;;;;;1.55;1.10;;;;;;;21.86;51.35;100771.75;4998810;28;20048;-84
2023/10/14 07:18:08;;;;;;;2.13;0.80;;;;;;;21.90;51.50;100780.97;4977135;28;20067;-84
2023/10/14 07:20:34;;;;;;;2.42;1.15;;;;;;;21.89;51.11;100784.63;4994234;28;20053;-84
2023/10/14 07:23:02;;;;;;;1.85;0.98;;;;;;;21.90;51.12;100778.31;4995038;28;20042;-83
2023/10/14 07:25:34;;;;;;;2.15;1.40;;;;;;;21.82;51.36;100775.81;4999036;28;20058;-83
2023/10/14 07:28:00;;;;;;;1.42;1.17;;;;;;;21.84;51.19;100776.44;4998122;28;20045;-83
2023/10/14 07:30:28;;;;;;;1.13;1.02;;;;;;;21.87;51.15;100784.00;4980200;28;20060;-83
2023/10/14 07:32:55;;;;;;;1.83;0.93;;;;;;;21.92;51.08;100800.16;4997783;28;20450;-88
2023/10/14 07:35:21;;;;;;;1.48;1.20;;;;;;;21.79;51.51;100782.34;4993902;28;20131;-88
2023/10/14 07:37:53;;;;;;;2.05;0.98;;;;;;;21.92;51.56;100811.59;5004057;28;20498;-88
2023/10/14 07:40:23;;;;;;;0.80;0.80;;;;;;;21.90;51.67;100805.66;4983359;28;20107;-88
2023/10/14 07:42:53;;;;;;;1.45;0.90;;;;;;;21.91;51.36;100807.31;5001308;28;20571;-88
2023/10/14 07:45:28;;;;;;;0.73;0.70;;;;;;;21.88;51.47;100820.09;4998841;28;20058;-89
2023/10/14 07:47:55;;;;;;;1.23;1.08;;;;;;;21.93;51.43;100823.84;5006699;28;20058;-90
2023/10/14 07:50:21;;;;;;;2.72;1.27;;;;;;;21.94;51.49;100824.66;5000712;28;20034;-89
2023/10/14 07:52:47;;;;;;;0.85;0.73;;;;;;;21.97;51.37;100842.81;4990882;28;20054;-88
2023/10/14 07:55:15;;;;;;;2.50;1.48;;;;;;;21.96;51.26;100844.66;4996626;28;20050;-88
2023/10/14 07:57:42;;;;;;;4.50;1.10;;;;;;;21.98;51.27;100847.09;4997681;28;20038;-89
2023/10/14 08:00:14;;;;;;;1.35;1.05;;;;;;;21.96;51.45;100844.66;4978859;28;20054;-89
2023/10/14 08:02:41;;;;;;;2.50;1.05;;;;;;;21.94;51.47;100851.16;4980443;28;20081;-88
2023/10/14 08:05:08;;;;;;;2.00;1.25;;;;;;;21.94;51.54;100857.28;4996362;28;20429;-87
2023/10/14 08:07:40;;;;;;;0.80;0.70;;;;;;;21.83;51.55;100827.81;5000809;28;20064;-87
2023/10/14 08:10:28;;;;;;;2.53;1.23;;;;;;;21.99;51.68;100854.88;4984221;28;20045;-90
2023/10/14 08:12:53;;;;;;;1.63;1.00;;;;;;;22.00;51.35;100858.34;5003990;28;20062;-89
2023/10/14 08:15:19;;;;;;;1.90;0.93;;;;;;;21.94;51.46;100849.34;4988326;28;20061;-89
2023/10/14 08:17:45;;;;;;;1.10;1.00;;;;;;;22.00;51.27;100866.28;4986838;28;20042;-90
2023/10/14 08:20:16;;;;;;;1.67;0.98;;;;;;;22.00;51.27;100866.28;4987317;28;20526;-89
2023/10/14 08:22:45;;;;;;;2.65;1.02;;;;;;;21.94;51.54;100859.13;4998863;28;20066;-89
2023/10/14 08:25:18;;;;;;;2.20;1.10;;;;;;;22.02;51.60;100880.19;5015941;28;20445;-89
2023/10/14 08:27:45;;;;;;;3.72;1.05;;;;;;;21.91;51.49;100862.16;4980898;28;20061;-88
2023/10/14 08:30:11;;;;;;;2.25;0.95;;;;;;;22.05;51.30;100886.94;4990067;28;20519;-89
2023/10/14 08:32:41;;;;;;;1.52;1.02;;;;;;;21.97;51.37;100886.06;5002258;28;20512;-90
2023/10/14 08:35:15;;;;;;;1.52;0.80;;;;;;;22.03;51.09;100895.88;4986377;28;20065;-90
2023/10/14 08:37:44;;;;;;;1.83;1.02;;;;;;;22.05;51.15;100895.72;5017554;28;20138;-89
2023/10/14 08:40:16;;;;;;;2.13;1.30;;;;;;;22.03;51.17;100895.88;4986315;28;20813;-89
2023/10/14 08:42:49;;;;;;;2.10;0.90;;;;;;;21.93;51.36;100894.59;5003540;28;20045;-89
2023/10/14 08:45:17;;;;;;;1.00;0.85;;;;;;;22.03;51.45;100917.09;5004305;28;20057;-89
2023/10/14 08:47:49;;;;;;;1.83;1.02;;;;;;;22.04;51.30;100909.97;5003440;28;20099;-89
2023/10/14 08:50:21;;;;;;;2.05;1.08;;;;;;;21.92;50.99;100896.44;5004970;28;20069;-89
2023/10/14 08:52:49;;;;;;;2.47;1.02;;;;;;;22.07;50.90;100922.06;4998660;28;20051;-89
2023/10/14 08:55:16;;;;;;;2.72;1.13;;;;;;;22.06;50.92;100931.84;5002896;28;20054;-89
2023/10/14 08:57:44;;;;;;;1.55;0.80;;;;;;;22.06;51.26;100925.72;4999815;28;20050;-89
2023/10/14 09:00:20;;;;;;;1.95;0.82;;;;;;;22.07;50.87;100922.88;5002940;28;20045;-89
2023/10/14 09:02:51;;;;;;;2.47;1.33;;;;;;;22.05;50.94;100932.84;5002075;28;20054;-88
2023/10/14 09:05:17;;;;;;;1.50;0.90;;;;;;;21.89;51.16;100902.09;5001222;28;20105;-88
2023/10/14 09:07:45;;;;;;;1.95;1.10;;;;;;;22.07;50.80;100937.97;4986512;28;20249;-89
2023/10/14 09:10:11;;;;;;;1.77;0.85;;;;;;;22.07;51.15;100935.31;5001349;28;20714;-89
2023/10/14 09:12:36;;;;;;;1.38;0.85;;;;;;;22.07;51.17;100941.44;4980196;28;20042;-89
2023/10/14 09:15:03;;;;;;;1.65;1.00;;;;;;;22.02;50.80;100936.69;4998142;28;20049;-88
2023/10/14 09:17:29;;;;;;;2.50;0.98;;;;;;;21.99;51.11;100942.38;4969562;28;20517;-89
2023/10/14 09:19:54;;;;;;;2.33;0.80;;;;;;;21.95;50.82;100930.50;5003937;28;20038;-89
2023/10/14 09:22:28;;;;;;;2.85;1.10;;;;;;;22.06;50.67;100945.09;5016131;28;20599;-89
2023/10/14 09:24:58;;;;;;;2.47;1.10;;;;;;;22.07;50.80;100952.03;5001330;28;20129;-89
2023/10/14 09:27:26;;;;;;;1.65;0.98;;;;;;;22.06;51.14;100962.84;5002732;28;20077;-88
2023/10/14 09:29:56;;;;;;;1.77;0.88;;;;;;;21.86;50.69;100929.00;4999667;28;20054;-88
2023/10/14 09:32:23;;;;;;;1.05;0.90;;;;;;;22.01;50.58;100955.44;4982831;28;20046;-89
2023/10/14 09:34:51;;;;;;;1.65;0.95;;;;;;;21.99;50.73;100952.16;4987543;28;20049;-89
2023/10/14 09:37:17;;;;;;;1.52;0.90;;;;;;;22.07;50.51;100967.13;4995752;28;20072;-88
2023/10/14 09:39:48;;;;;;;2.65;1.00;;;;;;;22.07;50.44;100973.25;4999629;28;20153;-89
2023/10/14 09:42:15;;;;;;;2.65;1.10;;;;;;;21.89;50.52;100957.78;4999842;28;20095;-89
2023/10/14 09:44:45;;;;;;;2.45;0.75;;;;;;;22.02;50.54;100981.75;4975093;28;20053;-89
2023/10/14 09:47:14;;;;;;;4.32;1.27;;;;;;;21.98;50.52;100977.03;4987453;28;20579;-89
2023/10/14 09:49:41;;;;;;;2.38;1.42;;;;;;;21.97;50.34;100975.41;4999043;28;20096;-89
2023/10/14 09:52:12;;;;;;;2.35;1.10;;;;;;;22.04;50.63;100981.56;4997821;28;20056;-88
2023/10/14 09:54:40;;;;;;;2.33;1.30;;;;;;;22.06;50.35;100987.53;4995012;28;20084;-88
2023/10/14 09:57:10;;;;;;;1.85;1.30;;;;;;;22.03;50.42;100986.06;5001326;28;20077;-88
2023/10/14 09:59:40;;;;;;;2.55;1.15;;;;;;;22.07;50.64;100988.34;4980568;28;20484;-88
2023/10/14 10:02:09;;;;;;;;;;;;;;;22.05;50.24;100990.38;5000867;28;20046;-88
2023/10/14 10:04:40;;;;;;;2.47;1.20;;;;;;;22.03;50.48;100994.00;4998500;28;19925;-88
2023/10/14 10:07:24;;;;;;;1.23;1.00;;;;;;;22.05;50.53;100999.16;5001279;28;20082;-88
2023/10/14 10:10:13;;;;;;;2.50;1.55;;;;;;;22.03;50.11;100982.56;4986106;28;20054;-88
2023/10/14 10:12:43;;;;;;;2.42;1.30;;;;;;;22.00;50.40;100980.31;4999004;28;20670;-88
2023/10/14 10:15:09;;;;;;;1.75;0.98;;;;;;;22.10;50.22;100998.59;5000203;28;20062;-88
2023/10/14 10:17:39;;;;;;;1.65;1.10;;;;;;;22.02;50.27;100995.03;4999777;28;20153;-88
2023/10/14 10:20:11;;;;;;;2.85;1.00;;;;;;;22.08;50.50;101035.88;5000922;28;20504;-89
2023/10/14 10:22:52;;;;;;;3.83;2.78;;;;;;;22.05;50.31;101035.47;4997039;28;20054;-88
2023/10/14 10:25:22;;;;;;;3.05;1.15;;;;;;;22.08;50.52;101049.16;4989831;28;20532;-88
2023/10/14 10:27:50;;;;;;;1.75;1.00;;;;;;;21.93;50.32;101025.34;4996640;28;20099;-88
2023/10/14 10:30:19;;;;;;;1.73;1.00;;;;;;;22.08;50.26;101043.84;4979202;28;20061;-88
2023/10/14 10:32:49;;;;;;;3.80;1.13;;;;;;;22.09;50.48;101042.03;4999846;28;20053;-88
2023/10/14 10:35:16;;;;;;;;;;;;;;;22.08;50.57;101050.97;4993279;28;20053;-88
2023/10/14 10:37:47;;;;;;;1.27;0.80;;;;;;;22.09;50.61;101047.34;4992789;28;19975;-88
2023/10/14 10:40:27;;;;;;;1.98;1.10;;;;;;;22.09;50.32;101050.00;4997523;28;21061;-89
2023/10/14 10:42:58;;;;;;;1.08;0.70;;;;;;;22.09;50.48;101058.78;4998468;28;20083;-87
2023/10/14 10:45:31;;;;;;;3.35;1.00;;;;;;;22.05;50.10;101057.50;4994790;28;20120;-88
2023/10/14 10:47:59;;;;;;;2.00;0.60;;;;;;;22.08;50.31;101072.19;4966898;28;20062;-87
2023/10/14 10:50:37;;;;;;;2.25;0.77;;;;;;;22.10;50.18;101049.00;5004602;28;20100;-87
2023/10/14 10:53:05;;;;;;;1.90;0.88;;;;;;;22.07;50.31;101055.47;4998325;28;20046;-87
2023/10/14 10:55:31;;;;;;;2.20;1.13;;;;;;;22.07;50.49;101055.47;4999141;28;20524;-87
2023/10/14 10:58:00;;;;;;;1.92;0.90;;;;;;;22.08;50.15;101061.59;4999743;28;20046;-87
2023/10/14 11:00:30;;;;;;;0.57;0.55;;;;;;;22.05;50.07;101062.78;4981881;28;20108;-87
2023/10/14 11:02:57;;;;;;;1.58;0.93;;;;;;;22.10;50.06;101062.25;4985944;28;20835;-87
2023/10/14 11:05:24;;;;;;;1.20;0.85;;;;;;;21.95;50.40;101041.88;4997729;28;20208;-88
2023/10/14 11:07:52;;;;;;;1.13;0.90;;;;;;;22.05;50.30;101052.19;4993845;28;20056;-87
2023/10/14 11:10:31;;;;;;;1.70;1.10;;;;;;;21.99;50.25;101043.13;4997017;28;20713;-86
2023/10/14 11:12:58;;;;;;;2.47;1.77;;;;;;;22.07;50.34;101055.47;4991623;28;20042;-87
2023/10/14 11:15:26;;;;;;;1.55;1.42;;;;;;;21.81;50.44;101018.06;5000931;28;20049;-87
2023/10/14 11:17:56;;;;;;;1.48;0.90;;;;;;;22.09;50.46;101057.97;4999602;28;20033;-85
2023/10/14 11:20:24;;;;;;;2.60;1.00;;;;;;;21.96;50.24;101035.56;4982473;28;20053;-86
2023/10/14 11:22:51;;;;;;;2.33;0.80;;;;;;;22.09;50.15;101065.91;4978023;28;20050;-86
2023/10/14 11:25:18;;;;;;;2.13;1.08;;;;;;;21.89;49.89;101028.53;4984366;28;20113;-86
2023/10/14 11:27:47;;;;;;;1.17;1.00;;;;;;;22.10;49.86;101060.41;4966343;28;20145;-86
2023/10/14 11:30:14;;;;;;;0.95;0.75;;;;;;;22.05;50.30;101059.31;4998243;28;20086;-86
2023/10/14 11:32:47;;;;;;;1.08;0.93;;;;;;;22.05;49.95;101044.22;4999327;28;20052;-86
2023/10/14 11:35:21;;;;;;;3.03;1.00;;;;;;;22.08;49.97;101082.81;4994344;28;20535;-86
2023/10/14 11:37:56;;;;;;;3.50;0.82;;;;;;;22.07;50.00;101110.34;5000810;28;20515;-86
2023/10/14 11:40:31;;;;;;;2.55;0.90;;;;;;;22.07;50.03;101095.25;4980650;28;20053;-86
2023/10/14 11:42:58;;;;;;;2.17;0.75;;;;;;;22.05;49.86;101107.88;4977995;28;20180;-86
2023/10/14 11:45:24;;;;;;;1.38;0.60;;;;;;;22.03;49.71;101113.34;5001831;28;20116;-87
2023/10/14 11:47:51;;;;;;;3.22;1.10;;;;;;;22.06;49.79;101117.47;5003623;28;20887;-86
2023/10/14 11:50:18;;;;;;;3.08;1.10;;;;;;;22.04;50.06;101135.38;5000952;28;20119;-86
2023/10/14 11:52:47;;;;;;;2.40;1.10;;;;;;;21.92;49.72;101131.59;5000488;28;20053;-87
2023/10/14 11:55:16;;;;;;;2.95;0.88;;;;;;;22.05;50.02;101142.34;4999549;28;20058;-86
2023/10/14 11:57:45;;;;;;;2.25;1.15;;;;;;;21.94;50.06;101134.88;5006182;28;20128;-86
2023/10/14 12:00:16;;;;;;;7.65;3.65;;;;;;;21.81;47.79;101103.72;4930044;28;20052;-87
2023/10/14 12:02:52;;;;;;;11.45;7.50;;;;;;;22.18;47.60;101131.06;5000669;28;20131;-87
2023/10/14 12:05:17;;;;;;;24.08;22.33;;;;;;;22.37;47.80;101133.09;4983559;28;20137;-85
2023/10/14 12:07:44;;;;;;;186.50;114.93;;;;;;;22.49;47.73;101133.44;4983444;28;20518;-86
2023/10/14 12:10:10;;;;;;;54.13;49.47;;;;;;;22.27;48.49;101116.69;4998672;28;20046;-84
2023/10/14 12:12:39;;;;;;;15.48;13.98;;;;;;;22.25;47.83;101138.09;5011907;28;20497;-80
2023/10/14 12:15:09;;;;;;;14.25;12.88;;;;;;;22.36;48.41;101134.13;4953717;28;20084;-80